Terminal Aerodrome Forecast
Issued by NWS

Home | Current Version | Previous Version | Graphics & Text | Print | Product List | Glossary On
Versions: 1 2 3 4 5 6 7 8 9 10 11 12 13 14 15 16 17 18 19 20 21
000
FTUS43 KGRB 200300 AAA
TAFATW
TAF AMD
KATW 200339Z 2004/2024 VRB03KT P6SM SCT022
      TEMPO 2004/2006 5SM BR BKN022
     FM200600 20004KT 5SM BR OVC025
     FM201500 18004KT P6SM OVC018=

USA.gov is the U.S. government's official web portal to all federal, state and local government web resources and services.